sensor_id;sensor_type;location;lat;lon;timestamp;temperature;humidity
25214;DHT22;13160;51.834;4.706;2024-03-22T05:22:39;11.10;99.90
25214;DHT22;13160;51.834;4.706;2024-03-22T05:25:08;11.00;99.90
25214;DHT22;13160;51.834;4.706;2024-03-22T05:27:38;11.00;99.90
25214;DHT22;13160;51.834;4.706;2024-03-22T05:30:26;11.00;99.90
25214;DHT22;13160;51.834;4.706;2024-03-22T05:32:54;11.00;99.90
25214;DHT22;13160;51.834;4.706;2024-03-22T06:46:32;11.20;99.90
25214;DHT22;13160;51.834;4.706;2024-03-22T11:11:41;11.80;99.90
25214;DHT22;13160;51.834;4.706;2024-03-22T11:14:42;11.90;99.90
25214;DHT22;13160;51.834;4.706;2024-03-22T11:17:57;11.80;99.90
25214;DHT22;13160;51.834;4.706;2024-03-22T11:23:50;11.90;99.90
25214;DHT22;13160;51.834;4.706;2024-03-22T11:36:11;12.00;99.90
25214;DHT22;13160;51.834;4.706;2024-03-22T11:38:43;12.00;99.90
25214;DHT22;13160;51.834;4.706;2024-03-22T11:41:11;12.00;99.90
25214;DHT22;13160;51.834;4.706;2024-03-22T11:43:43;12.00;99.90
25214;DHT22;13160;51.834;4.706;2024-03-22T11:46:11;11.90;99.90
25214;DHT22;13160;51.834;4.706;2024-03-22T11:48:40;11.90;99.90
25214;DHT22;13160;51.834;4.706;2024-03-22T11:51:08;11.90;99.90
25214;DHT22;13160;51.834;4.706;2024-03-22T11:53:35;11.90;99.90
25214;DHT22;13160;51.834;4.706;2024-03-22T11:56:03;11.90;99.90
25214;DHT22;13160;51.834;4.706;2024-03-22T11:58:30;11.90;99.90
25214;DHT22;13160;51.834;4.706;2024-03-22T12:00:58;12.00;99.90
25214;DHT22;13160;51.834;4.706;2024-03-22T12:03:25;12.00;99.90
25214;DHT22;13160;51.834;4.706;2024-03-22T12:05:55;12.00;99.90
25214;DHT22;13160;51.834;4.706;2024-03-22T12:08:22;12.10;99.90
25214;DHT22;13160;51.834;4.706;2024-03-22T12:10:49;12.10;99.90
25214;DHT22;13160;51.834;4.706;2024-03-22T12:13:16;12.10;99.90
25214;DHT22;13160;51.834;4.706;2024-03-22T12:15:43;12.20;99.90
25214;DHT22;13160;51.834;4.706;2024-03-22T12:18:11;12.20;99.90
25214;DHT22;13160;51.834;4.706;2024-03-22T12:20:42;12.20;99.90
25214;DHT22;13160;51.834;4.706;2024-03-22T12:23:11;12.20;99.90
25214;DHT22;13160;51.834;4.706;2024-03-22T12:25:43;12.30;99.90
25214;DHT22;13160;51.834;4.706;2024-03-22T12:28:10;12.40;99.90
25214;DHT22;13160;51.834;4.706;2024-03-22T12:30:37;12.40;99.90
25214;DHT22;13160;51.834;4.706;2024-03-22T12:33:06;12.50;99.90
25214;DHT22;13160;51.834;4.706;2024-03-22T12:35:37;12.50;99.90
25214;DHT22;13160;51.834;4.706;2024-03-22T12:38:06;12.50;99.90
25214;DHT22;13160;51.834;4.706;2024-03-22T12:40:39;12.50;99.90
25214;DHT22;13160;51.834;4.706;2024-03-22T12:43:06;12.50;99.90
25214;DHT22;13160;51.834;4.706;2024-03-22T12:45:36;12.50;99.90
25214;DHT22;13160;51.834;4.706;2024-03-22T12:48:02;12.40;99.90
25214;DHT22;13160;51.834;4.706;2024-03-22T12:50:30;12.40;99.90
25214;DHT22;13160;51.834;4.706;2024-03-22T12:52:57;12.30;99.90
25214;DHT22;13160;51.834;4.706;2024-03-22T12:55:24;12.30;99.90
25214;DHT22;13160;51.834;4.706;2024-03-22T12:57:53;12.20;99.90
25214;DHT22;13160;51.834;4.706;2024-03-22T13:00:20;12.20;99.90
25214;DHT22;13160;51.834;4.706;2024-03-22T13:02:47;12.20;99.90
25214;DHT22;13160;51.834;4.706;2024-03-22T13:05:14;12.20;99.90
25214;DHT22;13160;51.834;4.706;2024-03-22T13:07:41;12.20;99.90
25214;DHT22;13160;51.834;4.706;2024-03-22T13:10:09;12.20;99.90
25214;DHT22;13160;51.834;4.706;2024-03-22T13:12:36;12.20;99.90
25214;DHT22;13160;51.834;4.706;2024-03-22T13:15:05;12.10;99.90
25214;DHT22;13160;51.834;4.706;2024-03-22T13:17:32;12.10;99.90
25214;DHT22;13160;51.834;4.706;2024-03-22T13:20:00;12.10;99.90
25214;DHT22;13160;51.834;4.706;2024-03-22T13:22:26;12.10;99.90
25214;DHT22;13160;51.834;4.706;2024-03-22T13:24:54;12.00;99.90
25214;DHT22;13160;51.834;4.706;2024-03-22T13:27:22;12.00;99.90
25214;DHT22;13160;51.834;4.706;2024-03-22T13:29:54;12.00;99.90
25214;DHT22;13160;51.834;4.706;2024-03-22T13:32:24;12.00;99.90
25214;DHT22;13160;51.834;4.706;2024-03-22T13:34:52;12.00;99.90
25214;DHT22;13160;51.834;4.706;2024-03-22T13:37:18;12.00;99.90
25214;DHT22;13160;51.834;4.706;2024-03-22T13:39:48;12.10;99.90
25214;DHT22;13160;51.834;4.706;2024-03-22T13:42:15;12.10;99.90
25214;DHT22;13160;51.834;4.706;2024-03-22T13:44:42;12.10;99.90
25214;DHT22;13160;51.834;4.706;2024-03-22T13:47:09;12.10;99.90
25214;DHT22;13160;51.834;4.706;2024-03-22T13:49:37;12.10;99.90
25214;DHT22;13160;51.834;4.706;2024-03-22T13:52:08;12.10;99.90
25214;DHT22;13160;51.834;4.706;2024-03-22T13:54:38;12.10;99.90
25214;DHT22;13160;51.834;4.706;2024-03-22T13:57:06;12.00;99.90
25214;DHT22;13160;51.834;4.706;2024-03-22T13:59:33;12.00;99.90
25214;DHT22;13160;51.834;4.706;2024-03-22T14:02:00;12.00;99.90
25214;DHT22;13160;51.834;4.706;2024-03-22T14:04:29;12.00;99.90
25214;DHT22;13160;51.834;4.706;2024-03-22T14:06:58;12.00;99.90
25214;DHT22;13160;51.834;4.706;2024-03-22T14:09:37;12.00;99.90
25214;DHT22;13160;51.834;4.706;2024-03-22T14:12:13;12.00;99.90
25214;DHT22;13160;51.834;4.706;2024-03-22T14:15:13;12.00;99.90
25214;DHT22;13160;51.834;4.706;2024-03-22T14:21:40;12.00;99.90
25214;DHT22;13160;51.834;4.706;2024-03-22T14:24:49;12.00;99.90
25214;DHT22;13160;51.834;4.706;2024-03-22T14:27:47;12.00;99.90
25214;DHT22;13160;51.834;4.706;2024-03-22T14:30:34;12.00;99.90
25214;DHT22;13160;51.834;4.706;2024-03-22T14:33:28;12.00;99.90
25214;DHT22;13160;51.834;4.706;2024-03-22T14:35:56;12.00;99.90
25214;DHT22;13160;51.834;4.706;2024-03-22T14:38:25;12.00;99.90
25214;DHT22;13160;51.834;4.706;2024-03-22T14:41:05;11.90;99.90
25214;DHT22;13160;51.834;4.706;2024-03-22T14:43:33;11.90;99.90
25214;DHT22;13160;51.834;4.706;2024-03-22T14:46:01;11.80;99.90
25214;DHT22;13160;51.834;4.706;2024-03-22T14:48:30;11.80;99.90
25214;DHT22;13160;51.834;4.706;2024-03-22T14:50:56;11.80;99.90
25214;DHT22;13160;51.834;4.706;2024-03-22T14:53:24;11.80;99.90
25214;DHT22;13160;51.834;4.706;2024-03-22T14:55:54;11.80;99.90
25214;DHT22;13160;51.834;4.706;2024-03-22T14:58:25;11.80;99.90
25214;DHT22;13160;51.834;4.706;2024-03-22T15:00:53;11.80;99.90
25214;DHT22;13160;51.834;4.706;2024-03-22T15:03:24;11.80;99.90
25214;DHT22;13160;51.834;4.706;2024-03-22T15:09:15;11.80;99.90
25214;DHT22;13160;51.834;4.706;2024-03-22T15:13:22;11.70;99.90
25214;DHT22;13160;51.834;4.706;2024-03-22T15:16:43;11.80;99.90
25214;DHT22;13160;51.834;4.706;2024-03-22T15:19:09;11.70;99.90
25214;DHT22;13160;51.834;4.706;2024-03-22T15:21:37;11.80;99.90
25214;DHT22;13160;51.834;4.706;2024-03-22T15:24:05;11.80;99.90
25214;DHT22;13160;51.834;4.706;2024-03-22T15:26:33;11.80;99.90
25214;DHT22;13160;51.834;4.706;2024-03-22T15:29:04;11.80;99.90
25214;DHT22;13160;51.834;4.706;2024-03-22T15:31:32;11.80;99.90
25214;DHT22;13160;51.834;4.706;2024-03-22T15:34:00;11.80;99.90
25214;DHT22;13160;51.834;4.706;2024-03-22T15:36:28;11.80;99.90
25214;DHT22;13160;51.834;4.706;2024-03-22T15:38:56;11.80;99.90
25214;DHT22;13160;51.834;4.706;2024-03-22T15:41:24;11.80;99.90
25214;DHT22;13160;51.834;4.706;2024-03-22T15:43:52;11.90;99.90
25214;DHT22;13160;51.834;4.706;2024-03-22T15:46:22;11.80;99.90
25214;DHT22;13160;51.834;4.706;2024-03-22T15:48:52;11.80;99.90
25214;DHT22;13160;51.834;4.706;2024-03-22T15:51:35;11.70;99.90
25214;DHT22;13160;51.834;4.706;2024-03-22T15:54:11;11.70;99.90
25214;DHT22;13160;51.834;4.706;2024-03-22T15:56:41;11.70;99.90
25214;DHT22;13160;51.834;4.706;2024-03-22T15:59:07;11.60;99.90
25214;DHT22;13160;51.834;4.706;2024-03-22T16:01:37;11.50;99.90
25214;DHT22;13160;51.834;4.706;2024-03-22T16:04:06;11.50;99.90
25214;DHT22;13160;51.834;4.706;2024-03-22T16:07:05;11.50;99.90
25214;DHT22;13160;51.834;4.706;2024-03-22T16:18:10;11.30;99.90
25214;DHT22;13160;51.834;4.706;2024-03-22T16:20:41;11.30;99.90
25214;DHT22;13160;51.834;4.706;2024-03-22T16:23:10;11.20;99.90
25214;DHT22;13160;51.834;4.706;2024-03-22T16:25:39;11.20;99.90
25214;DHT22;13160;51.834;4.706;2024-03-22T16:28:06;11.20;99.90
25214;DHT22;13160;51.834;4.706;2024-03-22T16:30:53;11.20;99.90
25214;DHT22;13160;51.834;4.706;2024-03-22T16:40:56;11.10;99.90
25214;DHT22;13160;51.834;4.706;2024-03-22T16:43:34;11.10;99.90
25214;DHT22;13160;51.834;4.706;2024-03-22T16:46:06;11.10;99.90
25214;DHT22;13160;51.834;4.706;2024-03-22T16:48:43;11.10;99.90
25214;DHT22;13160;51.834;4.706;2024-03-22T16:57:25;10.90;99.90
25214;DHT22;13160;51.834;4.706;2024-03-22T17:01:05;10.80;99.90
25214;DHT22;13160;51.834;4.706;2024-03-22T17:04:17;10.70;99.90
25214;DHT22;13160;51.834;4.706;2024-03-22T17:07:01;10.70;99.90
25214;DHT22;13160;51.834;4.706;2024-03-22T17:09:50;10.70;99.90
25214;DHT22;13160;51.834;4.706;2024-03-22T17:37:04;10.60;99.90
25214;DHT22;13160;51.834;4.706;2024-03-22T17:42:20;10.60;99.90
25214;DHT22;13160;51.834;4.706;2024-03-22T17:44:49;10.60;99.90
25214;DHT22;13160;51.834;4.706;2024-03-22T17:50:50;10.60;99.90
25214;DHT22;13160;51.834;4.706;2024-03-22T17:53:52;10.60;99.90
25214;DHT22;13160;51.834;4.706;2024-03-22T17:56:32;10.60;99.90
25214;DHT22;13160;51.834;4.706;2024-03-22T17:59:20;10.50;99.90
25214;DHT22;13160;51.834;4.706;2024-03-22T18:01:52;10.50;99.90
25214;DHT22;13160;51.834;4.706;2024-03-22T18:04:19;10.50;99.90
25214;DHT22;13160;51.834;4.706;2024-03-22T18:06:50;10.50;99.90
25214;DHT22;13160;51.834;4.706;2024-03-22T18:09:24;10.50;99.90
25214;DHT22;13160;51.834;4.706;2024-03-22T18:11:52;10.40;99.90
25214;DHT22;13160;51.834;4.706;2024-03-22T18:14:20;10.40;99.90
25214;DHT22;13160;51.834;4.706;2024-03-22T18:16:52;10.40;99.90
25214;DHT22;13160;51.834;4.706;2024-03-22T18:19:54;10.40;99.90
25214;DHT22;13160;51.834;4.706;2024-03-22T18:22:22;10.40;99.90
25214;DHT22;13160;51.834;4.706;2024-03-22T18:24:52;10.40;99.90
25214;DHT22;13160;51.834;4.706;2024-03-22T18:27:21;10.40;99.90
25214;DHT22;13160;51.834;4.706;2024-03-22T18:29:49;10.40;99.90
25214;DHT22;13160;51.834;4.706;2024-03-22T18:32:18;10.40;99.90
25214;DHT22;13160;51.834;4.706;2024-03-22T18:34:47;10.30;99.90
25214;DHT22;13160;51.834;4.706;2024-03-22T18:37:19;10.30;99.90
25214;DHT22;13160;51.834;4.706;2024-03-22T18:40:11;10.30;99.90
25214;DHT22;13160;51.834;4.706;2024-03-22T18:42:40;10.30;99.90
25214;DHT22;13160;51.834;4.706;2024-03-22T18:45:09;10.30;99.90
25214;DHT22;13160;51.834;4.706;2024-03-22T18:47:38;10.20;99.90
25214;DHT22;13160;51.834;4.706;2024-03-22T18:50:05;10.20;99.90
25214;DHT22;13160;51.834;4.706;2024-03-22T18:52:36;10.20;99.90
25214;DHT22;13160;51.834;4.706;2024-03-22T18:55:05;10.20;99.90
25214;DHT22;13160;51.834;4.706;2024-03-22T18:57:37;10.20;99.90
25214;DHT22;13160;51.834;4.706;2024-03-22T19:00:05;10.20;99.90
25214;DHT22;13160;51.834;4.706;2024-03-22T19:02:36;10.20;99.90
25214;DHT22;13160;51.834;4.706;2024-03-22T19:05:07;10.20;99.90
25214;DHT22;13160;51.834;4.706;2024-03-22T19:07:43;10.20;99.90
25214;DHT22;13160;51.834;4.706;2024-03-22T19:10:13;10.20;99.90
25214;DHT22;13160;51.834;4.706;2024-03-22T19:12:44;10.20;99.90
25214;DHT22;13160;51.834;4.706;2024-03-22T19:15:13;10.20;99.90
25214;DHT22;13160;51.834;4.706;2024-03-22T19:17:45;10.20;99.90
25214;DHT22;13160;51.834;4.706;2024-03-22T19:20:17;10.10;99.90
25214;DHT22;13160;51.834;4.706;2024-03-22T19:22:45;10.20;99.90
25214;DHT22;13160;51.834;4.706;2024-03-22T19:25:13;10.20;99.90
25214;DHT22;13160;51.834;4.706;2024-03-22T19:27:41;10.10;99.90
25214;DHT22;13160;51.834;4.706;2024-03-22T19:30:11;10.10;99.90
25214;DHT22;13160;51.834;4.706;2024-03-22T19:32:39;10.20;99.90
25214;DHT22;13160;51.834;4.706;2024-03-22T19:35:06;10.10;99.90
25214;DHT22;13160;51.834;4.706;2024-03-22T19:37:33;10.10;99.90
25214;DHT22;13160;51.834;4.706;2024-03-22T19:40:00;10.10;99.90
25214;DHT22;13160;51.834;4.706;2024-03-22T19:42:28;10.10;99.90
25214;DHT22;13160;51.834;4.706;2024-03-22T19:44:55;10.10;99.90
25214;DHT22;13160;51.834;4.706;2024-03-22T19:47:25;10.10;99.90
25214;DHT22;13160;51.834;4.706;2024-03-22T19:49:52;10.10;99.90
25214;DHT22;13160;51.834;4.706;2024-03-22T19:52:23;10.20;99.90
25214;DHT22;13160;51.834;4.706;2024-03-22T19:54:50;10.20;99.90
25214;DHT22;13160;51.834;4.706;2024-03-22T19:57:18;10.20;99.90
25214;DHT22;13160;51.834;4.706;2024-03-22T19:59:48;10.10;99.90
25214;DHT22;13160;51.834;4.706;2024-03-22T20:02:17;10.20;99.90
25214;DHT22;13160;51.834;4.706;2024-03-22T20:04:53;10.20;99.90
25214;DHT22;13160;51.834;4.706;2024-03-22T20:10:17;10.20;99.90
25214;DHT22;13160;51.834;4.706;2024-03-22T20:12:50;10.20;99.90
25214;DHT22;13160;51.834;4.706;2024-03-22T20:15:38;10.10;99.90
25214;DHT22;13160;51.834;4.706;2024-03-22T20:18:20;10.20;99.90
